You are listening to:
LSZH Tower - Zurich, Switzerland

LSZH 210050Z 32005KT CAVOK 11/03 Q1021 NOSIG

If stream does not start automatically press the play button